sensor_id;sensor_type;location;lat;lon;timestamp;pressure;altitude;pressure_sealevel;temperature;humidity
25238;BME280;13185;50.872;5.306;2023-08-31T00:00:49;100591.41;;;12.67;100.00
25238;BME280;13185;50.872;5.306;2023-08-31T00:03:16;100596.91;;;12.66;100.00
25238;BME280;13185;50.872;5.306;2023-08-31T00:05:43;100596.78;;;12.67;100.00
25238;BME280;13185;50.872;5.306;2023-08-31T00:08:09;100599.59;;;12.66;100.00
25238;BME280;13185;50.872;5.306;2023-08-31T00:10:35;100600.56;;;12.65;100.00
25238;BME280;13185;50.872;5.306;2023-08-31T00:13:04;100597.16;;;12.63;100.00
25238;BME280;13185;50.872;5.306;2023-08-31T00:15:31;100602.66;;;12.61;100.00
25238;BME280;13185;50.872;5.306;2023-08-31T00:17:58;100609.22;;;12.57;100.00
25238;BME280;13185;50.872;5.306;2023-08-31T00:20:26;100605.69;;;12.57;100.00
25238;BME280;13185;50.872;5.306;2023-08-31T00:22:54;100617.53;;;12.54;100.00
25238;BME280;13185;50.872;5.306;2023-08-31T00:25:22;100608.88;;;12.51;100.00
25238;BME280;13185;50.872;5.306;2023-08-31T00:27:47;100613.47;;;12.49;100.00
25238;BME280;13185;50.872;5.306;2023-08-31T00:30:17;100601.84;;;12.48;100.00
25238;BME280;13185;50.872;5.306;2023-08-31T00:32:43;100609.19;;;12.46;100.00
25238;BME280;13185;50.872;5.306;2023-08-31T00:35:12;100596.97;;;12.42;100.00
25238;BME280;13185;50.872;5.306;2023-08-31T00:37:43;100601.81;;;12.37;100.00
25238;BME280;13185;50.872;5.306;2023-08-31T00:40:11;100595.97;;;12.32;100.00
25238;BME280;13185;50.872;5.306;2023-08-31T00:42:41;100596.94;;;12.31;100.00
25238;BME280;13185;50.872;5.306;2023-08-31T00:45:18;100603.16;;;12.31;100.00
25238;BME280;13185;50.872;5.306;2023-08-31T00:47:45;100598.66;;;12.32;100.00
25238;BME280;13185;50.872;5.306;2023-08-31T00:50:12;100605.09;;;12.29;100.00
25238;BME280;13185;50.872;5.306;2023-08-31T00:52:41;100596.06;;;12.30;100.00
25238;BME280;13185;50.872;5.306;2023-08-31T00:55:10;100598.25;;;12.25;100.00
25238;BME280;13185;50.872;5.306;2023-08-31T00:57:39;100594.09;;;12.21;100.00
25238;BME280;13185;50.872;5.306;2023-08-31T01:00:11;100589.03;;;12.17;100.00
25238;BME280;13185;50.872;5.306;2023-08-31T01:05:25;100589.53;;;12.10;100.00
25238;BME280;13185;50.872;5.306;2023-08-31T01:08:10;100588.41;;;12.13;100.00
25238;BME280;13185;50.872;5.306;2023-08-31T01:13:14;100594.91;;;12.10;100.00
25238;BME280;13185;50.872;5.306;2023-08-31T01:15:45;100599.50;;;12.08;100.00
25238;BME280;13185;50.872;5.306;2023-08-31T01:18:16;100596.94;;;12.07;100.00
25238;BME280;13185;50.872;5.306;2023-08-31T01:20:46;100598.88;;;12.05;100.00
25238;BME280;13185;50.872;5.306;2023-08-31T01:23:19;100592.66;;;12.04;100.00
25238;BME280;13185;50.872;5.306;2023-08-31T01:25:53;100594.25;;;12.07;100.00
25238;BME280;13185;50.872;5.306;2023-08-31T01:28:25;100591.91;;;12.02;100.00
25238;BME280;13185;50.872;5.306;2023-08-31T01:30:52;100594.72;;;12.01;100.00
25238;BME280;13185;50.872;5.306;2023-08-31T01:33:18;100601.06;;;12.00;100.00
25238;BME280;13185;50.872;5.306;2023-08-31T01:35:47;100588.63;;;11.99;100.00
25238;BME280;13185;50.872;5.306;2023-08-31T01:38:19;100599.44;;;11.97;100.00
25238;BME280;13185;50.872;5.306;2023-08-31T01:43:28;100608.38;;;11.98;100.00
25238;BME280;13185;50.872;5.306;2023-08-31T01:45:55;100606.66;;;11.97;100.00
25238;BME280;13185;50.872;5.306;2023-08-31T01:48:21;100614.59;;;11.98;100.00
25238;BME280;13185;50.872;5.306;2023-08-31T01:50:47;100605.81;;;11.96;100.00
25238;BME280;13185;50.872;5.306;2023-08-31T01:53:16;100606.78;;;11.95;100.00
25238;BME280;13185;50.872;5.306;2023-08-31T01:55:41;100616.06;;;11.91;100.00
25238;BME280;13185;50.872;5.306;2023-08-31T01:58:07;100616.91;;;11.92;100.00
25238;BME280;13185;50.872;5.306;2023-08-31T02:00:32;100600.66;;;11.93;100.00
25238;BME280;13185;50.872;5.306;2023-08-31T02:03:04;100612.50;;;11.91;100.00
25238;BME280;13185;50.872;5.306;2023-08-31T02:05:30;100620.69;;;11.89;100.00
25238;BME280;13185;50.872;5.306;2023-08-31T02:07:55;100614.53;;;11.87;100.00
25238;BME280;13185;50.872;5.306;2023-08-31T02:10:22;100624.44;;;11.87;100.00
25238;BME280;13185;50.872;5.306;2023-08-31T02:12:47;100620.91;;;11.86;100.00
25238;BME280;13185;50.872;5.306;2023-08-31T02:15:13;100624.34;;;11.88;100.00
25238;BME280;13185;50.872;5.306;2023-08-31T02:17:38;100621.13;;;11.83;100.00
25238;BME280;13185;50.872;5.306;2023-08-31T02:20:04;100620.16;;;11.84;100.00
25238;BME280;13185;50.872;5.306;2023-08-31T02:22:33;100626.38;;;11.84;100.00
25238;BME280;13185;50.872;5.306;2023-08-31T02:24:59;100619.41;;;11.82;100.00
25238;BME280;13185;50.872;5.306;2023-08-31T02:27:29;100622.97;;;11.82;100.00
25238;BME280;13185;50.872;5.306;2023-08-31T02:29:54;100613.38;;;11.78;100.00
25238;BME280;13185;50.872;5.306;2023-08-31T02:32:20;100618.84;;;11.77;100.00
25238;BME280;13185;50.872;5.306;2023-08-31T02:34:49;100613.59;;;11.75;100.00
25238;BME280;13185;50.872;5.306;2023-08-31T02:37:15;100620.78;;;11.75;100.00
25238;BME280;13185;50.872;5.306;2023-08-31T02:39:41;100618.09;;;11.75;100.00
25238;BME280;13185;50.872;5.306;2023-08-31T02:42:08;100621.53;;;11.77;100.00
25238;BME280;13185;50.872;5.306;2023-08-31T02:44:39;100619.94;;;11.74;100.00
25238;BME280;13185;50.872;5.306;2023-08-31T02:47:04;100625.31;;;11.74;100.00
25238;BME280;13185;50.872;5.306;2023-08-31T02:49:37;100620.06;;;11.73;100.00
25238;BME280;13185;50.872;5.306;2023-08-31T02:52:03;100614.91;;;11.70;100.00
25238;BME280;13185;50.872;5.306;2023-08-31T02:54:31;100622.22;;;11.68;100.00
25238;BME280;13185;50.872;5.306;2023-08-31T02:56:59;100621.25;;;11.69;100.00
25238;BME280;13185;50.872;5.306;2023-08-31T02:59:28;100608.81;;;11.68;100.00
25238;BME280;13185;50.872;5.306;2023-08-31T03:01:56;100616.00;;;11.67;100.00
25238;BME280;13185;50.872;5.306;2023-08-31T03:04:24;100622.44;;;11.65;100.00
25238;BME280;13185;50.872;5.306;2023-08-31T03:06:49;100617.06;;;11.65;100.00
25238;BME280;13185;50.872;5.306;2023-08-31T03:09:17;100625.97;;;11.65;100.00
25238;BME280;13185;50.872;5.306;2023-08-31T03:11:45;100618.91;;;11.64;100.00
25238;BME280;13185;50.872;5.306;2023-08-31T03:14:12;100617.19;;;11.63;100.00
25238;BME280;13185;50.872;5.306;2023-08-31T03:16:42;100624.50;;;11.61;100.00
25238;BME280;13185;50.872;5.306;2023-08-31T03:19:09;100617.41;;;11.60;100.00
25238;BME280;13185;50.872;5.306;2023-08-31T03:21:47;100623.75;;;11.59;100.00
25238;BME280;13185;50.872;5.306;2023-08-31T03:24:15;100625.59;;;11.59;100.00
25238;BME280;13185;50.872;5.306;2023-08-31T03:26:40;100620.97;;;11.61;100.00
25238;BME280;13185;50.872;5.306;2023-08-31T03:29:06;100616.56;;;11.60;100.00
25238;BME280;13185;50.872;5.306;2023-08-31T03:31:34;100623.66;;;11.61;100.00
25238;BME280;13185;50.872;5.306;2023-08-31T03:33:59;100614.72;;;11.60;100.00
25238;BME280;13185;50.872;5.306;2023-08-31T03:36:30;100613.75;;;11.61;100.00
25238;BME280;13185;50.872;5.306;2023-08-31T03:38:58;100614.72;;;11.60;100.00
25238;BME280;13185;50.872;5.306;2023-08-31T03:41:24;100617.19;;;11.63;100.00
25238;BME280;13185;50.872;5.306;2023-08-31T03:43:50;100618.91;;;11.64;100.00
25238;BME280;13185;50.872;5.306;2023-08-31T03:46:21;100628.34;;;11.70;100.00
25238;BME280;13185;50.872;5.306;2023-08-31T03:48:47;100627.25;;;11.72;100.00
25238;BME280;13185;50.872;5.306;2023-08-31T03:51:13;100629.94;;;11.72;100.00
25238;BME280;13185;50.872;5.306;2023-08-31T03:53:38;100625.66;;;11.70;100.00
25238;BME280;13185;50.872;5.306;2023-08-31T03:56:04;100623.09;;;11.68;100.00
25238;BME280;13185;50.872;5.306;2023-08-31T03:58:30;100630.38;;;11.66;100.00
25238;BME280;13185;50.872;5.306;2023-08-31T04:00:58;100630.38;;;11.66;100.00
25238;BME280;13185;50.872;5.306;2023-08-31T04:03:30;100628.66;;;11.65;100.00
25238;BME280;13185;50.872;5.306;2023-08-31T04:05:56;100630.28;;;11.68;100.00
25238;BME280;13185;50.872;5.306;2023-08-31T04:08:22;100635.56;;;11.69;100.00
25238;BME280;13185;50.872;5.306;2023-08-31T04:10:50;100635.75;;;11.66;100.00
25238;BME280;13185;50.872;5.306;2023-08-31T04:13:22;100636.72;;;11.65;100.00
25238;BME280;13185;50.872;5.306;2023-08-31T04:15:53;100639.28;;;11.67;100.00
25238;BME280;13185;50.872;5.306;2023-08-31T04:18:21;100637.69;;;11.64;100.00
25238;BME280;13185;50.872;5.306;2023-08-31T04:20:51;100645.00;;;11.62;100.00
25238;BME280;13185;50.872;5.306;2023-08-31T04:23:26;100648.56;;;11.63;100.00
25238;BME280;13185;50.872;5.306;2023-08-31T04:26:15;100648.44;;;11.64;100.00
25238;BME280;13185;50.872;5.306;2023-08-31T04:28:41;100650.16;;;11.65;100.00
25238;BME280;13185;50.872;5.306;2023-08-31T04:31:09;100650.16;;;11.65;100.00
25238;BME280;13185;50.872;5.306;2023-08-31T04:33:38;100647.59;;;11.64;100.00
25238;BME280;13185;50.872;5.306;2023-08-31T04:36:06;100650.03;;;11.67;100.00
25238;BME280;13185;50.872;5.306;2023-08-31T04:38:34;100647.34;;;11.67;100.00
25238;BME280;13185;50.872;5.306;2023-08-31T04:41:00;100647.59;;;11.64;100.00
25238;BME280;13185;50.872;5.306;2023-08-31T04:43:29;100650.38;;;11.62;100.00
25238;BME280;13185;50.872;5.306;2023-08-31T04:45:58;100654.66;;;11.65;100.00
25238;BME280;13185;50.872;5.306;2023-08-31T04:48:26;100649.19;;;11.66;100.00
25238;BME280;13185;50.872;5.306;2023-08-31T04:50:56;100658.44;;;11.62;100.00
25238;BME280;13185;50.872;5.306;2023-08-31T04:53:34;100657.59;;;11.62;100.00
25238;BME280;13185;50.872;5.306;2023-08-31T04:56:03;100660.38;;;11.60;100.00
25238;BME280;13185;50.872;5.306;2023-08-31T04:58:31;100667.47;;;11.61;100.00
25238;BME280;13185;50.872;5.306;2023-08-31T05:00:59;100663.94;;;11.61;100.00
25238;BME280;13185;50.872;5.306;2023-08-31T05:03:24;100658.44;;;11.62;100.00
25238;BME280;13185;50.872;5.306;2023-08-31T05:05:52;100658.44;;;11.62;100.00
25238;BME280;13185;50.872;5.306;2023-08-31T05:08:20;100669.06;;;11.64;100.00
25238;BME280;13185;50.872;5.306;2023-08-31T05:10:46;100668.97;;;11.65;100.00
25238;BME280;13185;50.872;5.306;2023-08-31T05:13:11;100673.59;;;11.63;100.00
25238;BME280;13185;50.872;5.306;2023-08-31T05:15:37;100672.63;;;11.64;100.00
25238;BME280;13185;50.872;5.306;2023-08-31T05:18:05;100669.31;;;11.61;100.00
25238;BME280;13185;50.872;5.306;2023-08-31T05:20:34;100685.31;;;11.62;100.00
25238;BME280;13185;50.872;5.306;2023-08-31T05:22:59;100678.00;;;11.64;100.00
25238;BME280;13185;50.872;5.306;2023-08-31T05:25:32;100686.78;;;11.66;100.00
25238;BME280;13185;50.872;5.306;2023-08-31T05:28:05;100682.63;;;11.62;100.00
25238;BME280;13185;50.872;5.306;2023-08-31T05:30:55;100690.56;;;11.64;100.00
25238;BME280;13185;50.872;5.306;2023-08-31T05:33:21;100680.56;;;11.66;100.00
25238;BME280;13185;50.872;5.306;2023-08-31T05:35:55;100694.97;;;11.65;100.00
25238;BME280;13185;50.872;5.306;2023-08-31T05:38:21;100702.91;;;11.66;100.00
25238;BME280;13185;50.872;5.306;2023-08-31T05:41:10;100701.63;;;11.72;100.00
25238;BME280;13185;50.872;5.306;2023-08-31T05:43:36;100704.06;;;11.75;100.00
25238;BME280;13185;50.872;5.306;2023-08-31T05:46:05;100707.13;;;11.83;100.00
25238;BME280;13185;50.872;5.306;2023-08-31T05:48:34;100712.06;;;11.89;100.00
25238;BME280;13185;50.872;5.306;2023-08-31T05:51:06;100715.13;;;11.96;100.00
25238;BME280;13185;50.872;5.306;2023-08-31T05:53:32;100718.13;;;12.04;100.00
25238;BME280;13185;50.872;5.306;2023-08-31T05:55:58;100725.75;;;12.10;100.00
25238;BME280;13185;50.872;5.306;2023-08-31T05:58:31;100728.72;;;12.18;100.00
25238;BME280;13185;50.872;5.306;2023-08-31T06:00:56;100726.31;;;12.26;100.00
25238;BME280;13185;50.872;5.306;2023-08-31T06:03:25;100727.47;;;12.35;100.00
25238;BME280;13185;50.872;5.306;2023-08-31T06:05:51;100726.91;;;12.42;100.00
25238;BME280;13185;50.872;5.306;2023-08-31T06:09:02;100722.03;;;12.48;100.00
25238;BME280;13185;50.872;5.306;2023-08-31T06:11:16;100719.75;;;12.54;100.00
25238;BME280;13185;50.872;5.306;2023-08-31T06:13:54;100720.13;;;12.61;100.00
25238;BME280;13185;50.872;5.306;2023-08-31T06:16:22;100714.31;;;12.67;100.00
25238;BME280;13185;50.872;5.306;2023-08-31T06:18:52;100721.56;;;12.78;100.00
25238;BME280;13185;50.872;5.306;2023-08-31T06:21:26;100721.84;;;12.86;100.00
25238;BME280;13185;50.872;5.306;2023-08-31T06:24:07;100717.72;;;12.93;100.00
25238;BME280;13185;50.872;5.306;2023-08-31T06:35:52;100732.41;;;13.24;100.00
25238;BME280;13185;50.872;5.306;2023-08-31T06:38:18;100723.81;;;13.30;100.00
25238;BME280;13185;50.872;5.306;2023-08-31T06:40:45;100735.59;;;13.40;100.00
25238;BME280;13185;50.872;5.306;2023-08-31T06:43:11;100731.56;;;13.46;100.00
25238;BME280;13185;50.872;5.306;2023-08-31T06:45:36;100738.69;;;13.58;100.00
25238;BME280;13185;50.872;5.306;2023-08-31T06:48:02;100740.00;;;13.75;100.00
25238;BME280;13185;50.872;5.306;2023-08-31T06:50:28;100742.09;;;13.82;100.00
25238;BME280;13185;50.872;5.306;2023-08-31T06:52:53;100746.88;;;13.90;100.00
25238;BME280;13185;50.872;5.306;2023-08-31T06:55:19;100750.69;;;13.99;100.00
25238;BME280;13185;50.872;5.306;2023-08-31T06:57:44;100756.41;;;14.05;100.00
25238;BME280;13185;50.872;5.306;2023-08-31T07:00:11;100750.53;;;14.11;100.00
25238;BME280;13185;50.872;5.306;2023-08-31T07:02:39;100755.78;;;14.24;100.00
25238;BME280;13185;50.872;5.306;2023-08-31T07:05:05;100752.34;;;14.33;100.00
25238;BME280;13185;50.872;5.306;2023-08-31T07:07:31;100761.03;;;14.48;100.00
25238;BME280;13185;50.872;5.306;2023-08-31T07:09:57;100760.16;;;14.48;100.00
25238;BME280;13185;50.872;5.306;2023-08-31T07:12:22;100768.63;;;14.43;100.00
25238;BME280;13185;50.872;5.306;2023-08-31T07:14:48;100773.78;;;14.46;100.00
25238;BME280;13185;50.872;5.306;2023-08-31T07:17:17;100766.56;;;14.47;100.00
25238;BME280;13185;50.872;5.306;2023-08-31T07:19:43;100768.16;;;14.49;100.00
25238;BME280;13185;50.872;5.306;2023-08-31T07:22:08;100770.47;;;14.54;100.00
25238;BME280;13185;50.872;5.306;2023-08-31T07:24:35;100770.84;;;14.60;100.00
25238;BME280;13185;50.872;5.306;2023-08-31T07:27:02;100771.16;;;14.67;100.00
25238;BME280;13185;50.872;5.306;2023-08-31T07:29:27;100768.47;;;14.67;100.00
25238;BME280;13185;50.872;5.306;2023-08-31T07:31:53;100758.06;;;14.62;100.00
25238;BME280;13185;50.872;5.306;2023-08-31T07:34:18;100763.19;;;14.65;100.00
25238;BME280;13185;50.872;5.306;2023-08-31T07:36:44;100767.25;;;14.71;100.00
25238;BME280;13185;50.872;5.306;2023-08-31T07:39:10;100760.13;;;14.70;100.00
25238;BME280;13185;50.872;5.306;2023-08-31T07:41:35;100766.56;;;14.79;100.00
25238;BME280;13185;50.872;5.306;2023-08-31T07:44:01;100767.31;;;14.81;100.00
25238;BME280;13185;50.872;5.306;2023-08-31T07:46:28;100767.78;;;14.86;100.00
25238;BME280;13185;50.872;5.306;2023-08-31T07:48:53;100764.50;;;14.82;100.00
25238;BME280;13185;50.872;5.306;2023-08-31T07:51:18;100776.88;;;14.85;100.00
25238;BME280;13185;50.872;5.306;2023-08-31T07:53:49;100775.38;;;14.92;100.00
25238;BME280;13185;50.872;5.306;2023-08-31T07:56:14;100783.47;;;14.92;100.00
25238;BME280;13185;50.872;5.306;2023-08-31T07:58:40;100789.59;;;14.94;100.00
25238;BME280;13185;50.872;5.306;2023-08-31T08:01:05;100792.63;;;15.00;100.00
25238;BME280;13185;50.872;5.306;2023-08-31T08:03:31;100789.81;;;15.02;100.00
25238;BME280;13185;50.872;5.306;2023-08-31T08:05:56;100789.06;;;15.00;100.00
25238;BME280;13185;50.872;5.306;2023-08-31T08:08:22;100793.81;;;15.08;100.00
25238;BME280;13185;50.872;5.306;2023-08-31T08:10:52;100791.06;;;15.19;100.00
25238;BME280;13185;50.872;5.306;2023-08-31T08:13:17;100791.41;;;15.25;100.00
25238;BME280;13185;50.872;5.306;2023-08-31T08:15:43;100791.88;;;15.30;100.00
25238;BME280;13185;50.872;5.306;2023-08-31T08:18:08;100788.13;;;15.43;100.00
25238;BME280;13185;50.872;5.306;2023-08-31T08:20:34;100805.22;;;15.43;100.00
25238;BME280;13185;50.872;5.306;2023-08-31T08:22:59;100811.84;;;15.39;100.00
25238;BME280;13185;50.872;5.306;2023-08-31T08:25:25;100815.16;;;15.43;100.00
25238;BME280;13185;50.872;5.306;2023-08-31T08:27:50;100805.50;;;15.50;100.00
25238;BME280;13185;50.872;5.306;2023-08-31T08:30:16;100810.25;;;15.57;100.00
25238;BME280;13185;50.872;5.306;2023-08-31T08:32:42;100804.97;;;15.67;100.00
25238;BME280;13185;50.872;5.306;2023-08-31T08:35:07;100800.72;;;15.74;100.00
25238;BME280;13185;50.872;5.306;2023-08-31T08:37:33;100803.75;;;15.81;100.00
25238;BME280;13185;50.872;5.306;2023-08-31T08:39:59;100803.03;;;15.79;100.00
25238;BME280;13185;50.872;5.306;2023-08-31T08:42:25;100809.28;;;15.79;100.00
25238;BME280;13185;50.872;5.306;2023-08-31T08:44:51;100811.19;;;15.88;100.00
25238;BME280;13185;50.872;5.306;2023-08-31T08:47:17;100809.25;;;16.00;100.00
25238;BME280;13185;50.872;5.306;2023-08-31T08:49:43;100813.00;;;16.09;100.00
25238;BME280;13185;50.872;5.306;2023-08-31T08:52:09;100809.47;;;16.18;100.00
25238;BME280;13185;50.872;5.306;2023-08-31T08:54:35;100816.03;;;16.15;100.00
25238;BME280;13185;50.872;5.306;2023-08-31T08:57:01;100817.97;;;16.13;100.00
25238;BME280;13185;50.872;5.306;2023-08-31T08:59:30;100815.41;;;16.12;100.00
25238;BME280;13185;50.872;5.306;2023-08-31T09:01:56;100818.25;;;16.10;100.00
25238;BME280;13185;50.872;5.306;2023-08-31T09:04:22;100820.41;;;16.07;100.00
25238;BME280;13185;50.872;5.306;2023-08-31T09:06:47;100818.69;;;16.06;100.00
25238;BME280;13185;50.872;5.306;2023-08-31T09:09:13;100824.19;;;16.04;100.00
25238;BME280;13185;50.872;5.306;2023-08-31T09:11:38;100818.97;;;16.12;100.00
25238;BME280;13185;50.872;5.306;2023-08-31T09:14:17;100827.84;;;16.24;100.00
25238;BME280;13185;50.872;5.306;2023-08-31T09:16:51;100821.19;;;16.28;100.00
25238;BME280;13185;50.872;5.306;2023-08-31T09:19:23;100826.50;;;16.39;100.00
25238;BME280;13185;50.872;5.306;2023-08-31T09:21:50;100822.41;;;16.55;100.00
25238;BME280;13185;50.872;5.306;2023-08-31T09:24:16;100828.75;;;16.74;100.00
25238;BME280;13185;50.872;5.306;2023-08-31T09:29:14;100819.94;;;16.82;100.00
25238;BME280;13185;50.872;5.306;2023-08-31T09:31:46;100830.75;;;16.82;100.00
25238;BME280;13185;50.872;5.306;2023-08-31T09:34:13;100825.75;;;16.87;100.00
25238;BME280;13185;50.872;5.306;2023-08-31T09:36:39;100819.94;;;17.01;100.00
25238;BME280;13185;50.872;5.306;2023-08-31T09:39:08;100833.06;;;17.16;100.00
25238;BME280;13185;50.872;5.306;2023-08-31T09:41:35;100828.50;;;17.26;99.83
25238;BME280;13185;50.872;5.306;2023-08-31T09:44:18;100835.94;;;17.24;97.85
25238;BME280;13185;50.872;5.306;2023-08-31T09:46:44;100832.78;;;17.19;98.17
25238;BME280;13185;50.872;5.306;2023-08-31T09:49:14;100833.78;;;17.18;98.66
25238;BME280;13185;50.872;5.306;2023-08-31T09:51:43;100845.06;;;17.23;98.83
25238;BME280;13185;50.872;5.306;2023-08-31T09:54:15;100848.78;;;17.31;96.70
25238;BME280;13185;50.872;5.306;2023-08-31T09:56:44;100837.78;;;17.33;96.50
25238;BME280;13185;50.872;5.306;2023-08-31T09:59:10;100850.19;;;17.36;94.31
25238;BME280;13185;50.872;5.306;2023-08-31T10:01:36;100844.59;;;17.47;95.69
25238;BME280;13185;50.872;5.306;2023-08-31T10:04:02;100852.59;;;17.48;93.62
25238;BME280;13185;50.872;5.306;2023-08-31T10:06:29;100845.16;;;17.50;94.04
25238;BME280;13185;50.872;5.306;2023-08-31T10:08:55;100844.47;;;17.48;93.39
25238;BME280;13185;50.872;5.306;2023-08-31T10:11:21;100842.75;;;17.47;92.00
25238;BME280;13185;50.872;5.306;2023-08-31T10:13:49;100846.59;;;17.54;91.42
25238;BME280;13185;50.872;5.306;2023-08-31T10:16:15;100844.44;;;17.68;91.47
25238;BME280;13185;50.872;5.306;2023-08-31T10:18:42;100839.88;;;17.78;92.48
25238;BME280;13185;50.872;5.306;2023-08-31T10:21:08;100845.59;;;17.84;93.08
25238;BME280;13185;50.872;5.306;2023-08-31T10:23:34;100843.19;;;17.72;90.66
25238;BME280;13185;50.872;5.306;2023-08-31T10:26:02;100839.31;;;17.65;91.79
25238;BME280;13185;50.872;5.306;2023-08-31T10:28:29;100840.03;;;17.67;91.88
25238;BME280;13185;50.872;5.306;2023-08-31T10:31:05;100842.03;;;17.65;89.70
25238;BME280;13185;50.872;5.306;2023-08-31T10:33:40;100838.63;;;17.63;88.77
25238;BME280;13185;50.872;5.306;2023-08-31T10:36:16;100847.47;;;17.74;90.16
25238;BME280;13185;50.872;5.306;2023-08-31T10:38:45;100844.59;;;17.85;89.31
25238;BME280;13185;50.872;5.306;2023-08-31T10:46:24;100833.63;;;18.24;87.41
25238;BME280;13185;50.872;5.306;2023-08-31T10:48:53;100827.38;;;18.41;90.26
25238;BME280;13185;50.872;5.306;2023-08-31T10:51:24;100828.63;;;18.47;85.42
25238;BME280;13185;50.872;5.306;2023-08-31T10:53:50;100828.53;;;18.39;85.19
25238;BME280;13185;50.872;5.306;2023-08-31T10:56:17;100832.28;;;18.28;86.19
25238;BME280;13185;50.872;5.306;2023-08-31T10:58:42;100832.88;;;18.22;86.22
25238;BME280;13185;50.872;5.306;2023-08-31T11:01:10;100832.50;;;18.17;86.36
25238;BME280;13185;50.872;5.306;2023-08-31T11:04:09;100832.19;;;18.20;86.29
25238;BME280;13185;50.872;5.306;2023-08-31T11:06:35;100819.03;;;18.25;86.35
25238;BME280;13185;50.872;5.306;2023-08-31T11:09:01;100829.69;;;18.36;88.00
25238;BME280;13185;50.872;5.306;2023-08-31T11:11:37;100819.53;;;18.38;86.57
25238;BME280;13185;50.872;5.306;2023-08-31T11:14:03;100823.44;;;18.26;85.75
25238;BME280;13185;50.872;5.306;2023-08-31T11:16:30;100820.06;;;18.14;85.50
25238;BME280;13185;50.872;5.306;2023-08-31T11:18:56;100821.31;;;18.20;85.06
25238;BME280;13185;50.872;5.306;2023-08-31T11:21:21;100827.88;;;18.27;85.91
25238;BME280;13185;50.872;5.306;2023-08-31T11:23:48;100824.91;;;18.48;86.30
25238;BME280;13185;50.872;5.306;2023-08-31T11:26:14;100819.72;;;18.55;84.88
25238;BME280;13185;50.872;5.306;2023-08-31T11:28:43;100809.38;;;18.68;83.44
25238;BME280;13185;50.872;5.306;2023-08-31T11:31:09;100811.94;;;18.69;81.79
25238;BME280;13185;50.872;5.306;2023-08-31T11:33:34;100820.97;;;18.60;81.29
25238;BME280;13185;50.872;5.306;2023-08-31T11:36:01;100820.72;;;18.54;80.85
25238;BME280;13185;50.872;5.306;2023-08-31T11:38:28;100818.31;;;18.51;81.66
25238;BME280;13185;50.872;5.306;2023-08-31T11:40:58;100810.16;;;18.51;81.40
25238;BME280;13185;50.872;5.306;2023-08-31T11:43:24;100819.28;;;18.59;82.22
25238;BME280;13185;50.872;5.306;2023-08-31T11:45:50;100820.66;;;18.63;82.49
25238;BME280;13185;50.872;5.306;2023-08-31T11:48:16;100820.66;;;18.63;81.51
25238;BME280;13185;50.872;5.306;2023-08-31T11:50:42;100823.13;;;18.66;80.40
25238;BME280;13185;50.872;5.306;2023-08-31T11:53:08;100821.59;;;18.82;81.24
25238;BME280;13185;50.872;5.306;2023-08-31T11:55:34;100823.28;;;18.83;78.95
25238;BME280;13185;50.872;5.306;2023-08-31T11:58:00;100823.44;;;18.81;79.05
25238;BME280;13185;50.872;5.306;2023-08-31T12:00:25;100822.91;;;18.78;79.20
25238;BME280;13185;50.872;5.306;2023-08-31T12:02:58;100821.97;;;18.69;78.72
25238;BME280;13185;50.872;5.306;2023-08-31T12:05:25;100830.81;;;18.71;79.64
25238;BME280;13185;50.872;5.306;2023-08-31T12:07:53;100825.53;;;18.69;78.13
25238;BME280;13185;50.872;5.306;2023-08-31T12:10:20;100816.00;;;18.65;76.96
25238;BME280;13185;50.872;5.306;2023-08-31T12:12:45;100827.41;;;18.69;76.43
25238;BME280;13185;50.872;5.306;2023-08-31T12:15:11;100824.22;;;18.73;76.77
25238;BME280;13185;50.872;5.306;2023-08-31T12:17:40;100838.91;;;18.81;76.60
25238;BME280;13185;50.872;5.306;2023-08-31T12:20:09;100841.94;;;18.78;76.25
25238;BME280;13185;50.872;5.306;2023-08-31T12:22:35;100830.84;;;18.61;76.02
25238;BME280;13185;50.872;5.306;2023-08-31T12:25:00;100836.00;;;18.55;76.89
25238;BME280;13185;50.872;5.306;2023-08-31T12:27:26;100832.75;;;18.51;77.83
25238;BME280;13185;50.872;5.306;2023-08-31T12:29:51;100831.16;;;18.58;78.40
25238;BME280;13185;50.872;5.306;2023-08-31T12:32:17;100829.63;;;18.73;78.29
25238;BME280;13185;50.872;5.306;2023-08-31T12:34:45;100827.72;;;18.84;77.53
25238;BME280;13185;50.872;5.306;2023-08-31T12:37:11;100826.19;;;18.99;78.25
25238;BME280;13185;50.872;5.306;2023-08-31T12:39:36;100814.41;;;19.08;76.86
25238;BME280;13185;50.872;5.306;2023-08-31T12:42:03;100814.31;;;19.00;74.67
25238;BME280;13185;50.872;5.306;2023-08-31T12:44:29;100814.22;;;18.92;76.01
25238;BME280;13185;50.872;5.306;2023-08-31T12:46:55;100816.69;;;18.85;75.98
25238;BME280;13185;50.872;5.306;2023-08-31T12:49:20;100816.25;;;18.90;76.35
25238;BME280;13185;50.872;5.306;2023-08-31T12:51:47;100811.66;;;18.90;74.17
25238;BME280;13185;50.872;5.306;2023-08-31T12:54:12;100811.34;;;19.11;74.16
25238;BME280;13185;50.872;5.306;2023-08-31T12:56:38;100808.94;;;19.26;74.88
25238;BME280;13185;50.872;5.306;2023-08-31T12:59:03;100810.25;;;19.40;74.05
25238;BME280;13185;50.872;5.306;2023-08-31T13:01:31;100814.19;;;19.45;74.30
25238;BME280;13185;50.872;5.306;2023-08-31T13:03:58;100813.44;;;19.35;73.11
25238;BME280;13185;50.872;5.306;2023-08-31T13:06:24;100819.66;;;19.27;71.99
25238;BME280;13185;50.872;5.306;2023-08-31T13:08:50;100825.31;;;19.34;73.05
25238;BME280;13185;50.872;5.306;2023-08-31T13:11:16;100807.91;;;19.45;73.31